Time,TemperatureF,DewpointF,PressureIn,WindDirection,WindDirectionDegrees,WindSpeedMPH,WindSpeedGustMPH,Humidity,HourlyPrecipIn,Conditions,Clouds,dailyrainin,SolarRadiationWatts/m^2,SoftwareType,DateUTC
2013-04-13 00:00:00,40.0,32.0,29.97,WSW,255,6.0,9.0,73,0.00,,,0.00,0,weatherlink.com 1.10,2013-04-13 04:00:00,
2013-04-13 00:15:00,39.8,32.0,29.98,SW,225,7.0,8.0,74,0.00,,,0.00,0,weatherlink.com 1.10,2013-04-13 04:15:00,
2013-04-13 00:30:00,39.9,32.0,29.98,SW,227,1.0,8.0,74,0.00,,,0.00,0,weatherlink.com 1.10,2013-04-13 04:30:00,
2013-04-13 00:46:00,39.9,32.0,29.98,WSW,242,2.0,8.0,74,0.00,,,0.00,0,weatherlink.com 1.10,2013-04-13 04:46:00,
2013-04-13 01:01:00,39.7,32.0,29.98,WSW,246,0.0,6.0,75,0.00,,,0.00,0,weatherlink.com 1.10,2013-04-13 05:01:00,
2013-04-13 01:46:00,39.7,33.0,30.00,SSW,209,3.0,8.0,76,0.00,,,0.00,0,weatherlink.com 1.10,2013-04-13 05:46:00,
2013-04-13 02:03:00,39.6,33.0,30.00,South,191,4.0,8.0,76,0.00,,,0.00,0,weatherlink.com 1.10,2013-04-13 06:03:00,
2013-04-13 02:16:00,39.6,33.0,30.00,SW,217,5.0,9.0,76,0.00,,,0.00,0,weatherlink.com 1.10,2013-04-13 06:16:00,
2013-04-13 02:31:00,39.6,33.0,30.00,WSW,247,2.0,8.0,76,0.00,,,0.00,0,weatherlink.com 1.10,2013-04-13 06:31:00,
2013-04-13 02:46:00,39.5,33.0,29.99,SW,232,4.0,7.0,76,0.00,,,0.00,0,weatherlink.com 1.10,2013-04-13 06:46:00,
2013-04-13 03:01:00,39.5,33.0,29.99,SW,236,1.0,9.0,76,0.00,,,0.00,0,weatherlink.com 1.10,2013-04-13 07:01:00,
2013-04-13 03:16:00,39.5,33.0,29.99,West,267,2.0,10.0,76,0.00,,,0.00,0,weatherlink.com 1.10,2013-04-13 07:16:00,
2013-04-13 03:31:00,39.5,33.0,29.99,SSW,198,5.0,7.0,76,0.00,,,0.00,0,weatherlink.com 1.10,2013-04-13 07:31:00,
2013-04-13 04:02:00,39.4,33.0,29.99,SW,215,4.0,7.0,77,0.00,,,0.00,0,weatherlink.com 1.10,2013-04-13 08:02:00,
2013-04-13 04:17:00,39.5,33.0,29.99,WSW,239,3.0,10.0,77,0.00,,,0.00,0,weatherlink.com 1.10,2013-04-13 08:17:00,
2013-04-13 04:31:00,39.5,33.0,29.98,WSW,238,5.0,11.0,77,0.00,,,0.00,0,weatherlink.com 1.10,2013-04-13 08:31:00,
2013-04-13 05:02:00,39.4,33.0,29.99,WSW,240,1.0,10.0,78,0.00,,,0.00,0,weatherlink.com 1.10,2013-04-13 09:02:00,
2013-04-13 05:18:00,39.4,33.0,29.99,SW,225,5.0,9.0,78,0.00,,,0.00,0,weatherlink.com 1.10,2013-04-13 09:18:00,
2013-04-13 05:32:00,39.3,33.0,29.99,SW,229,2.0,7.0,79,0.00,,,0.00,0,weatherlink.com 1.10,2013-04-13 09:32:00,
2013-04-13 05:47:00,39.3,33.0,29.99,SW,232,2.0,9.0,78,0.00,,,0.00,0,weatherlink.com 1.10,2013-04-13 09:47:00,
2013-04-13 06:02:00,39.1,33.0,29.99,WSW,239,5.0,8.0,78,0.00,,,0.00,0,weatherlink.com 1.10,2013-04-13 10:02:00,
2013-04-13 06:17:00,39.1,33.0,29.99,WSW,239,4.0,9.0,78,0.00,,,0.00,0,weatherlink.com 1.10,2013-04-13 10:17:00,
2013-04-13 06:32:00,39.1,33.0,30.00,WSW,238,2.0,8.0,78,0.00,,,0.00,0,weatherlink.com 1.10,2013-04-13 10:32:00,
2013-04-13 06:47:00,38.9,32.0,29.99,WSW,250,4.0,7.0,77,0.00,,,0.00,0,weatherlink.com 1.10,2013-04-13 10:47:00,
2013-04-13 07:02:00,38.4,32.0,29.99,SW,234,1.0,9.0,78,0.00,,,0.00,0,weatherlink.com 1.10,2013-04-13 11:02:00,
2013-04-13 07:17:00,37.7,32.0,30.00,WSW,239,4.0,7.0,80,0.00,,,0.00,5,weatherlink.com 1.10,2013-04-13 11:17:00,
2013-04-13 07:32:00,37.2,32.0,30.00,SW,221,6.0,6.0,81,0.00,,,0.00,14,weatherlink.com 1.10,2013-04-13 11:32:00,
2013-04-13 07:47:00,37.1,32.0,30.00,WSW,238,5.0,10.0,82,0.00,,,0.00,26,weatherlink.com 1.10,2013-04-13 11:47:00,
2013-04-13 08:02:00,37.5,32.0,30.01,SW,225,2.0,10.0,81,0.00,,,0.00,40,weatherlink.com 1.10,2013-04-13 12:02:00,
2013-04-13 08:17:00,37.9,32.0,30.02,SW,233,7.0,10.0,80,0.00,,,0.00,53,weatherlink.com 1.10,2013-04-13 12:17:00,
2013-04-13 08:32:00,38.5,33.0,30.02,SSW,202,4.0,9.0,79,0.00,,,0.00,77,weatherlink.com 1.10,2013-04-13 12:32:00,
2013-04-13 08:47:00,39.5,33.0,30.03,SSW,209,5.0,13.0,78,0.00,,,0.00,220,weatherlink.com 1.10,2013-04-13 12:47:00,
2013-04-13 09:02:00,40.5,33.0,30.03,WSW,237,7.0,13.0,75,0.00,,,0.00,329,weatherlink.com 1.10,2013-04-13 13:02:00,
2013-04-13 09:18:00,41.3,33.0,30.03,WSW,244,9.0,12.0,73,0.00,,,0.00,399,weatherlink.com 1.10,2013-04-13 13:18:00,
2013-04-13 09:32:00,42.0,34.0,30.04,SSW,211,6.0,21.0,72,0.00,,,0.00,485,weatherlink.com 1.10,2013-04-13 13:32:00,
2013-04-13 09:48:00,42.5,33.0,30.03,SSW,200,6.0,16.0,70,0.00,,,0.00,638,weatherlink.com 1.10,2013-04-13 13:48:00,
2013-04-13 10:03:00,42.9,32.0,30.04,SW,217,10.0,16.0,66,0.00,,,0.00,267,weatherlink.com 1.10,2013-04-13 14:03:00,
2013-04-13 10:18:00,43.2,33.0,30.03,SSW,213,10.0,14.0,67,0.00,,,0.00,640,weatherlink.com 1.10,2013-04-13 14:18:00,
2013-04-13 10:33:00,44.3,34.0,30.02,West,259,5.0,18.0,66,0.00,,,0.00,721,weatherlink.com 1.10,2013-04-13 14:33:00,
2013-04-13 11:03:00,45.6,36.0,30.02,SW,226,11.0,15.0,68,0.00,,,0.00,849,weatherlink.com 1.10,2013-04-13 15:03:00,
2013-04-13 11:18:00,46.3,34.0,30.02,SW,227,7.0,27.0,63,0.00,,,0.00,810,weatherlink.com 1.10,2013-04-13 15:18:00,
2013-04-13 11:33:00,47.7,35.0,30.03,SSW,209,10.0,22.0,61,0.00,,,0.00,854,weatherlink.com 1.10,2013-04-13 15:33:00,
2013-04-13 11:48:00,48.1,35.0,30.03,SSW,207,16.0,21.0,61,0.00,,,0.00,942,weatherlink.com 1.10,2013-04-13 15:48:00,
2013-04-13 12:03:00,48.6,36.0,30.03,South,188,19.0,19.0,63,0.00,,,0.00,988,weatherlink.com 1.10,2013-04-13 16:03:00,
2013-04-13 12:18:00,49.0,35.0,30.03,WNW,284,7.0,26.0,60,0.00,,,0.00,1021,weatherlink.com 1.10,2013-04-13 16:18:00,
2013-04-13 12:33:00,49.8,35.0,30.03,SW,218,5.0,24.0,57,0.00,,,0.00,1021,weatherlink.com 1.10,2013-04-13 16:33:00,
2013-04-13 12:48:00,49.8,34.0,30.02,West,274,7.0,19.0,55,0.00,,,0.00,248,weatherlink.com 1.10,2013-04-13 16:48:00,
2013-04-13 13:03:00,50.3,34.0,30.03,SW,221,13.0,26.0,54,0.00,,,0.00,1028,weatherlink.com 1.10,2013-04-13 17:03:00,
2013-04-13 13:18:00,50.6,35.0,30.03,SW,233,13.0,19.0,55,0.00,,,0.00,1201,weatherlink.com 1.10,2013-04-13 17:18:00,
2013-04-13 13:33:00,51.3,35.0,30.03,WNW,290,7.0,22.0,55,0.00,,,0.00,1100,weatherlink.com 1.10,2013-04-13 17:33:00,
2013-04-13 13:48:00,51.1,34.0,30.03,WSW,238,9.0,18.0,52,0.00,,,0.00,1083,weatherlink.com 1.10,2013-04-13 17:48:00,
2013-04-13 14:03:00,51.5,36.0,30.03,SW,236,12.0,18.0,55,0.00,,,0.00,1199,weatherlink.com 1.10,2013-04-13 18:03:00,
2013-04-13 14:18:00,52.1,35.0,30.03,West,279,8.0,24.0,53,0.00,,,0.00,1088,weatherlink.com 1.10,2013-04-13 18:18:00,
2013-04-13 14:33:00,51.6,34.0,30.03,West,260,10.0,20.0,52,0.00,,,0.00,1034,weatherlink.com 1.10,2013-04-13 18:33:00,
2013-04-13 14:48:00,52.6,35.0,30.03,SW,235,8.0,20.0,52,0.00,,,0.00,972,weatherlink.com 1.10,2013-04-13 18:48:00,
2013-04-13 15:03:00,53.0,35.0,30.03,West,262,15.0,21.0,51,0.00,,,0.00,983,weatherlink.com 1.10,2013-04-13 19:03:00,
2013-04-13 15:18:00,52.9,35.0,30.02,West,269,5.0,18.0,50,0.00,,,0.00,251,weatherlink.com 1.10,2013-04-13 19:18:00,
2013-04-13 15:33:00,53.8,35.0,30.02,West,276,4.0,21.0,49,0.00,,,0.00,888,weatherlink.com 1.10,2013-04-13 19:33:00,
2013-04-13 15:48:00,54.2,34.0,30.02,WNW,294,1.0,24.0,46,0.00,,,0.00,844,weatherlink.com 1.10,2013-04-13 19:48:00,
2013-04-13 16:03:00,53.9,35.0,30.02,SW,221,5.0,22.0,49,0.00,,,0.00,828,weatherlink.com 1.10,2013-04-13 20:03:00,
2013-04-13 16:18:00,53.6,33.0,30.02,NNW,330,7.0,19.0,46,0.00,,,0.00,803,weatherlink.com 1.10,2013-04-13 20:18:00,
2013-04-13 16:33:00,54.3,34.0,30.02,West,265,2.0,18.0,47,0.00,,,0.00,726,weatherlink.com 1.10,2013-04-13 20:33:00,
2013-04-13 16:48:00,54.4,33.0,30.01,SW,229,5.0,18.0,45,0.00,,,0.00,686,weatherlink.com 1.10,2013-04-13 20:48:00,
2013-04-13 17:03:00,54.6,34.0,30.01,NW,318,1.0,13.0,46,0.00,,,0.00,635,weatherlink.com 1.10,2013-04-13 21:03:00,
2013-04-13 17:18:00,54.6,35.0,30.01,SW,225,7.0,18.0,48,0.00,,,0.00,585,weatherlink.com 1.10,2013-04-13 21:18:00,
2013-04-13 17:34:00,54.5,34.0,30.01,South,186,7.0,14.0,47,0.00,,,0.00,543,weatherlink.com 1.10,2013-04-13 21:34:00,
2013-04-13 17:49:00,54.4,34.0,30.01,West,272,15.0,15.0,47,0.00,,,0.00,482,weatherlink.com 1.10,2013-04-13 21:49:00,
2013-04-13 18:04:00,54.7,35.0,30.01,WNW,284,1.0,13.0,48,0.00,,,0.00,422,weatherlink.com 1.10,2013-04-13 22:04:00,
2013-04-13 18:19:00,54.2,35.0,30.01,SSW,211,10.0,13.0,48,0.00,,,0.00,367,weatherlink.com 1.10,2013-04-13 22:19:00,
2013-04-13 18:34:00,54.6,35.0,30.01,West,269,6.0,8.0,48,0.00,,,0.00,311,weatherlink.com 1.10,2013-04-13 22:34:00,
2013-04-13 18:49:00,54.1,34.0,30.01,WNW,296,7.0,12.0,47,0.00,,,0.00,248,weatherlink.com 1.10,2013-04-13 22:49:00,
2013-04-13 19:04:00,54.0,34.0,30.01,WSW,247,9.0,15.0,47,0.00,,,0.00,181,weatherlink.com 1.10,2013-04-13 23:04:00,
2013-04-13 19:19:00,53.6,34.0,30.01,WSW,242,5.0,12.0,47,0.00,,,0.00,105,weatherlink.com 1.10,2013-04-13 23:19:00,
2013-04-13 19:34:00,52.3,33.0,30.00,WSW,238,8.0,10.0,49,0.00,,,0.00,32,weatherlink.com 1.10,2013-04-13 23:34:00,
2013-04-13 19:49:00,51.8,34.0,30.01,West,265,5.0,8.0,51,0.00,,,0.00,37,weatherlink.com 1.10,2013-04-13 23:49:00,
2013-04-13 20:04:00,51.4,35.0,30.00,SW,221,3.0,5.0,53,0.00,,,0.00,18,weatherlink.com 1.10,2013-04-14 00:04:00,
2013-04-13 20:19:00,50.9,34.0,30.00,West,280,0.0,7.0,52,0.00,,,0.00,5,weatherlink.com 1.10,2013-04-14 00:19:00,
2013-04-13 20:34:00,50.1,34.0,30.01,West,280,0.0,4.0,54,0.00,,,0.00,0,weatherlink.com 1.10,2013-04-14 00:34:00,
2013-04-13 20:49:00,49.3,34.0,30.01,West,280,0.0,0.0,55,0.00,,,0.00,0,weatherlink.com 1.10,2013-04-14 00:49:00,
2013-04-13 21:04:00,48.5,33.0,30.01,West,280,0.0,0.0,56,0.00,,,0.00,0,weatherlink.com 1.10,2013-04-14 01:04:00,
2013-04-13 21:19:00,47.7,33.0,30.01,West,280,0.0,0.0,57,0.00,,,0.00,0,weatherlink.com 1.10,2013-04-14 01:19:00,
2013-04-13 21:34:00,47.3,33.0,30.01,West,280,0.0,0.0,59,0.00,,,0.00,0,weatherlink.com 1.10,2013-04-14 01:34:00,
2013-04-13 21:49:00,47.1,33.0,30.02,West,280,0.0,0.0,58,0.00,,,0.00,0,weatherlink.com 1.10,2013-04-14 01:49:00,
2013-04-13 22:04:00,46.9,33.0,30.02,West,280,0.0,0.0,59,0.00,,,0.00,0,weatherlink.com 1.10,2013-04-14 02:04:00,
2013-04-13 22:19:00,46.3,33.0,30.02,West,280,0.0,0.0,61,0.00,,,0.00,0,weatherlink.com 1.10,2013-04-14 02:19:00,
2013-04-13 22:34:00,45.9,33.0,30.02,West,280,0.0,1.0,62,0.00,,,0.00,0,weatherlink.com 1.10,2013-04-14 02:34:00,
2013-04-13 22:49:00,45.0,33.0,30.02,West,280,0.0,0.0,63,0.00,,,0.00,0,weatherlink.com 1.10,2013-04-14 02:49:00,
2013-04-13 23:04:00,45.1,33.0,30.02,West,280,0.0,4.0,64,0.00,,,0.00,0,weatherlink.com 1.10,2013-04-14 03:04:00,
2013-04-13 23:19:00,44.7,33.0,30.01,West,280,0.0,1.0,64,0.00,,,0.00,0,weatherlink.com 1.10,2013-04-14 03:19:00,
2013-04-13 23:34:00,44.0,33.0,30.01,West,280,0.0,1.0,65,0.00,,,0.00,0,weatherlink.com 1.10,2013-04-14 03:34:00,
2013-04-13 23:49:00,43.5,33.0,30.00,West,280,0.0,1.0,67,0.00,,,0.00,0,weatherlink.com 1.10,2013-04-14 03:49:00,